Details for Ryanair at EPWR




Go Back


Latest METAR
Local Time

EPWR 252200Z VRB02KT CAVOK 14/10 Q1021

26/05/2018, 00:25:22

Description
Results
Ryanair Logo
Number of Pilots based at EPWR
0 Pilots Based here
Number of Ryanair Flights Departed from EPWR
1 Flights Departed
Number of Ryanair Flights Arrived at EPWR
1 Flights Arrived
Number of Ryanair Schedules Departing from EPWR
52 Schedules
Number of Ryanair Schedules Arriving at EPWR
51 Schedules
Number of Ryanair Schedules Departing from EPWR availible today
13 Schedules Today
Number of Ryanair Schedules Arriving at EPWR availible today
13 Schedules Today
Average Landing Rate at EPWR
-262 fpm
Ryanair Average Landing Rate at EPWR
-95 fpm
Total Fuel Purchased at EPWR by Ryanair
2,705.68 kgs / 5,964.94 lbs

Pilots Based at EPWR


Pilot ID
Pilot Name
Pilot Rank
No. of Flights
No. of Flying Hours
There are no pilots assigned to this hub!   Will you be the first?
Content